sensor_id;sensor_type;location;lat;lon;timestamp;pressure;altitude;pressure_sealevel;temperature;humidity
46682;BME280;34101;53.430;-2.224;2022-11-15T00:00:09;154975.69;;;10.05;100.00
46682;BME280;34101;53.430;-2.224;2022-11-15T00:02:37;154964.30;;;10.00;100.00
46682;BME280;34101;53.430;-2.224;2022-11-15T00:05:04;154953.07;;;9.96;100.00
46682;BME280;34101;53.430;-2.224;2022-11-15T00:07:31;154945.95;;;9.93;100.00
46682;BME280;34101;53.430;-2.224;2022-11-15T00:09:59;154942.56;;;9.92;100.00
46682;BME280;34101;53.430;-2.224;2022-11-15T00:12:27;154930.76;;;9.87;100.00
46682;BME280;34101;53.430;-2.224;2022-11-15T00:14:55;154929.71;;;9.86;100.00
46682;BME280;34101;53.430;-2.224;2022-11-15T00:17:22;154918.72;;;9.82;100.00
46682;BME280;34101;53.430;-2.224;2022-11-15T00:19:49;154920.26;;;9.83;100.00
46682;BME280;34101;53.430;-2.224;2022-11-15T00:22:17;154913.79;;;9.80;100.00
46682;BME280;34101;53.430;-2.224;2022-11-15T00:24:44;154906.28;;;9.77;100.00
46682;BME280;34101;53.430;-2.224;2022-11-15T00:27:11;154901.27;;;9.75;100.00
46682;BME280;34101;53.430;-2.224;2022-11-15T00:29:39;154885.92;;;9.69;100.00
46682;BME280;34101;53.430;-2.224;2022-11-15T00:32:06;154905.87;;;9.77;100.00
46682;BME280;34101;53.430;-2.224;2022-11-15T00:34:34;154917.11;;;9.81;100.00
46682;BME280;34101;53.430;-2.224;2022-11-15T00:37:01;154928.58;;;9.86;100.00
46682;BME280;34101;53.430;-2.224;2022-11-15T00:39:28;154936.01;;;9.89;100.00
46682;BME280;34101;53.430;-2.224;2022-11-15T00:41:56;154940.46;;;9.91;100.00
46682;BME280;34101;53.430;-2.224;2022-11-15T00:44:23;154939.33;;;9.90;100.00
46682;BME280;34101;53.430;-2.224;2022-11-15T00:46:51;154930.36;;;9.87;100.00
46682;BME280;34101;53.430;-2.224;2022-11-15T00:49:18;154910.80;;;9.79;100.00
46682;BME280;34101;53.430;-2.224;2022-11-15T00:51:45;154913.23;;;9.80;100.00
46682;BME280;34101;53.430;-2.224;2022-11-15T00:54:13;154919.21;;;9.82;100.00
46682;BME280;34101;53.430;-2.224;2022-11-15T00:56:41;154923.89;;;9.84;100.00
46682;BME280;34101;53.430;-2.224;2022-11-15T00:59:08;154921.39;;;9.83;100.00
46682;BME280;34101;53.430;-2.224;2022-11-15T01:01:35;154922.52;;;9.84;100.00
46682;BME280;34101;53.430;-2.224;2022-11-15T01:04:03;154920.34;;;9.83;100.00
46682;BME280;34101;53.430;-2.224;2022-11-15T01:06:30;154934.96;;;9.89;100.00
46682;BME280;34101;53.430;-2.224;2022-11-15T01:08:57;154950.08;;;9.95;100.00
46682;BME280;34101;53.430;-2.224;2022-11-15T01:11:25;154956.78;;;9.97;100.00
46682;BME280;34101;53.430;-2.224;2022-11-15T01:13:52;154957.67;;;9.98;100.00
46682;BME280;34101;53.430;-2.224;2022-11-15T01:16:20;154937.55;;;9.90;100.00
46682;BME280;34101;53.430;-2.224;2022-11-15T01:18:47;154963.89;;;10.00;100.00
46682;BME280;34101;53.430;-2.224;2022-11-15T01:21:16;154977.31;;;10.06;100.00
46682;BME280;34101;53.430;-2.224;2022-11-15T01:23:44;154984.42;;;10.08;100.00
46682;BME280;34101;53.430;-2.224;2022-11-15T01:26:13;154997.19;;;10.14;100.00
46682;BME280;34101;53.430;-2.224;2022-11-15T01:28:41;155015.94;;;10.21;100.00
46682;BME280;34101;53.430;-2.224;2022-11-15T01:31:13;155037.60;;;10.30;100.00
46682;BME280;34101;53.430;-2.224;2022-11-15T01:33:41;155049.16;;;10.35;100.00
46682;BME280;34101;53.430;-2.224;2022-11-15T01:36:12;155054.74;;;10.37;100.00
46682;BME280;34101;53.430;-2.224;2022-11-15T01:38:40;155064.36;;;10.41;100.00
46682;BME280;34101;53.430;-2.224;2022-11-15T01:41:14;155079.23;;;10.47;100.00
46682;BME280;34101;53.430;-2.224;2022-11-15T01:43:42;155087.80;;;10.50;100.00
46682;BME280;34101;53.430;-2.224;2022-11-15T01:46:21;155089.74;;;10.51;100.00
46682;BME280;34101;53.430;-2.224;2022-11-15T01:48:51;155103.24;;;10.56;100.00
46682;BME280;34101;53.430;-2.224;2022-11-15T01:51:21;155102.35;;;10.56;100.00
46682;BME280;34101;53.430;-2.224;2022-11-15T01:53:54;155097.02;;;10.54;100.00
46682;BME280;34101;53.430;-2.224;2022-11-15T01:56:25;155101.14;;;10.56;100.00
46682;BME280;34101;53.430;-2.224;2022-11-15T01:58:56;155093.46;;;10.52;100.00
46682;BME280;34101;53.430;-2.224;2022-11-15T02:01:26;155105.59;;;10.57;100.00
46682;BME280;34101;53.430;-2.224;2022-11-15T02:03:59;155108.18;;;10.58;100.00
46682;BME280;34101;53.430;-2.224;2022-11-15T02:06:28;155116.10;;;10.62;100.00
46682;BME280;34101;53.430;-2.224;2022-11-15T02:08:56;155098.15;;;10.54;100.00
46682;BME280;34101;53.430;-2.224;2022-11-15T02:11:23;155122.24;;;10.64;100.00
46682;BME280;34101;53.430;-2.224;2022-11-15T02:13:51;155139.63;;;10.71;100.00
46682;BME280;34101;53.430;-2.224;2022-11-15T02:16:30;155146.17;;;10.74;100.00
46682;BME280;34101;53.430;-2.224;2022-11-15T02:19:15;155152.40;;;10.76;100.00
46682;BME280;34101;53.430;-2.224;2022-11-15T02:21:54;155173.34;;;10.85;100.00
46682;BME280;34101;53.430;-2.224;2022-11-15T02:24:42;155183.21;;;10.89;100.00
46682;BME280;34101;53.430;-2.224;2022-11-15T02:27:31;155186.68;;;10.90;100.00
46682;BME280;34101;53.430;-2.224;2022-11-15T02:30:30;155203.50;;;10.97;100.00
46682;BME280;34101;53.430;-2.224;2022-11-15T02:33:06;155204.72;;;10.97;100.00
46682;BME280;34101;53.430;-2.224;2022-11-15T02:35:40;155211.43;;;11.00;100.00
46682;BME280;34101;53.430;-2.224;2022-11-15T02:38:18;155217.57;;;11.02;100.00
46682;BME280;34101;53.430;-2.224;2022-11-15T02:40:53;155228.25;;;11.07;100.00
46682;BME280;34101;53.430;-2.224;2022-11-15T02:43:28;155245.63;;;11.14;100.00
46682;BME280;34101;53.430;-2.224;2022-11-15T02:46:02;155247.82;;;11.15;100.00
46682;BME280;34101;53.430;-2.224;2022-11-15T02:48:32;155246.20;;;11.14;100.00
46682;BME280;34101;53.430;-2.224;2022-11-15T02:51:01;155257.20;;;11.18;100.00
46682;BME280;34101;53.430;-2.224;2022-11-15T02:53:29;155244.74;;;11.13;100.00
46682;BME280;34101;53.430;-2.224;2022-11-15T02:55:57;155242.97;;;11.13;100.00
46682;BME280;34101;53.430;-2.224;2022-11-15T02:58:39;155239.08;;;11.11;100.00
46682;BME280;34101;53.430;-2.224;2022-11-15T03:01:15;155239.65;;;11.11;100.00
46682;BME280;34101;53.430;-2.224;2022-11-15T03:03:58;155259.14;;;11.19;100.00
46682;BME280;34101;53.430;-2.224;2022-11-15T03:06:33;155263.75;;;11.21;100.00
46682;BME280;34101;53.430;-2.224;2022-11-15T03:09:05;155260.60;;;11.20;100.00
46682;BME280;34101;53.430;-2.224;2022-11-15T03:11:37;155246.69;;;11.14;100.00
46682;BME280;34101;53.430;-2.224;2022-11-15T03:14:22;155250.49;;;11.16;100.00
46682;BME280;34101;53.430;-2.224;2022-11-15T03:16:57;155254.05;;;11.17;100.00
46682;BME280;34101;53.430;-2.224;2022-11-15T03:19:32;155258.49;;;11.19;100.00
46682;BME280;34101;53.430;-2.224;2022-11-15T03:22:04;155251.78;;;11.16;100.00
46682;BME280;34101;53.430;-2.224;2022-11-15T03:24:35;155256.96;;;11.18;100.00
46682;BME280;34101;53.430;-2.224;2022-11-15T03:27:03;155251.62;;;11.16;100.00
46682;BME280;34101;53.430;-2.224;2022-11-15T03:29:35;155230.75;;;11.08;100.00
46682;BME280;34101;53.430;-2.224;2022-11-15T03:32:09;155226.31;;;11.06;100.00
46682;BME280;34101;53.430;-2.224;2022-11-15T03:34:43;155212.96;;;11.01;100.00
46682;BME280;34101;53.430;-2.224;2022-11-15T03:37:14;155204.15;;;10.97;100.00
46682;BME280;34101;53.430;-2.224;2022-11-15T03:39:43;155213.04;;;11.01;100.00
46682;BME280;34101;53.430;-2.224;2022-11-15T03:42:20;155207.71;;;10.98;100.00
46682;BME280;34101;53.430;-2.224;2022-11-15T03:44:52;155212.48;;;11.00;100.00
46682;BME280;34101;53.430;-2.224;2022-11-15T03:47:26;155216.12;;;11.02;100.00
46682;BME280;34101;53.430;-2.224;2022-11-15T03:49:59;155213.13;;;11.01;100.00
46682;BME280;34101;53.430;-2.224;2022-11-15T03:52:32;155216.12;;;11.02;100.00
46682;BME280;34101;53.430;-2.224;2022-11-15T03:55:01;155213.21;;;11.01;100.00
46682;BME280;34101;53.430;-2.224;2022-11-15T03:57:30;155222.67;;;11.04;100.00
46682;BME280;34101;53.430;-2.224;2022-11-15T03:59:57;155227.44;;;11.06;100.00
46682;BME280;34101;53.430;-2.224;2022-11-15T04:02:25;155233.83;;;11.09;100.00
46682;BME280;34101;53.430;-2.224;2022-11-15T04:04:53;155183.04;;;10.89;100.00
46682;BME280;34101;53.430;-2.224;2022-11-15T04:07:20;155147.47;;;10.74;100.00
46682;BME280;34101;53.430;-2.224;2022-11-15T04:09:48;155120.87;;;10.63;100.00
46682;BME280;34101;53.430;-2.224;2022-11-15T04:12:15;155116.66;;;10.62;100.00
46682;BME280;34101;53.430;-2.224;2022-11-15T04:14:43;155110.68;;;10.59;100.00
46682;BME280;34101;53.430;-2.224;2022-11-15T04:17:10;155084.49;;;10.49;100.00
46682;BME280;34101;53.430;-2.224;2022-11-15T04:19:37;155078.26;;;10.46;100.00
46682;BME280;34101;53.430;-2.224;2022-11-15T04:22:07;155089.02;;;10.51;100.00
46682;BME280;34101;53.430;-2.224;2022-11-15T04:24:34;155082.63;;;10.48;100.00
46682;BME280;34101;53.430;-2.224;2022-11-15T04:27:01;155086.59;;;10.50;100.00
46682;BME280;34101;53.430;-2.224;2022-11-15T04:29:28;155083.11;;;10.48;100.00
46682;BME280;34101;53.430;-2.224;2022-11-15T04:31:56;155094.92;;;10.53;100.00
46682;BME280;34101;53.430;-2.224;2022-11-15T04:34:23;155082.31;;;10.48;100.00
46682;BME280;34101;53.430;-2.224;2022-11-15T04:36:51;155087.64;;;10.50;100.00
46682;BME280;34101;53.430;-2.224;2022-11-15T04:39:18;155069.86;;;10.43;100.00
46682;BME280;34101;53.430;-2.224;2022-11-15T04:41:45;155054.42;;;10.37;100.00
46682;BME280;34101;53.430;-2.224;2022-11-15T04:44:13;155064.76;;;10.41;100.00
46682;BME280;34101;53.430;-2.224;2022-11-15T04:46:40;155077.46;;;10.46;100.00
46682;BME280;34101;53.430;-2.224;2022-11-15T04:49:08;155083.03;;;10.48;100.00
46682;BME280;34101;53.430;-2.224;2022-11-15T04:51:35;155077.86;;;10.46;100.00
46682;BME280;34101;53.430;-2.224;2022-11-15T04:54:03;155061.77;;;10.40;100.00
46682;BME280;34101;53.430;-2.224;2022-11-15T04:56:30;155070.75;;;10.43;100.00
46682;BME280;34101;53.430;-2.224;2022-11-15T04:58:57;155071.55;;;10.44;100.00
46682;BME280;34101;53.430;-2.224;2022-11-15T05:01:25;155075.92;;;10.45;100.00
46682;BME280;34101;53.430;-2.224;2022-11-15T05:03:53;155083.76;;;10.49;100.00
46682;BME280;34101;53.430;-2.224;2022-11-15T05:06:20;155080.37;;;10.47;100.00
46682;BME280;34101;53.430;-2.224;2022-11-15T05:08:47;155079.23;;;10.47;100.00
46682;BME280;34101;53.430;-2.224;2022-11-15T05:11:14;155067.03;;;10.42;100.00
46682;BME280;34101;53.430;-2.224;2022-11-15T05:13:42;155063.47;;;10.40;100.00
46682;BME280;34101;53.430;-2.224;2022-11-15T05:16:09;155065.65;;;10.41;100.00
46682;BME280;34101;53.430;-2.224;2022-11-15T05:18:37;155064.04;;;10.41;100.00
46682;BME280;34101;53.430;-2.224;2022-11-15T05:21:04;155066.14;;;10.41;100.00
46682;BME280;34101;53.430;-2.224;2022-11-15T05:23:32;155078.99;;;10.47;100.00
46682;BME280;34101;53.430;-2.224;2022-11-15T05:26:00;155087.80;;;10.50;100.00
46682;BME280;34101;53.430;-2.224;2022-11-15T05:28:27;155088.61;;;10.50;100.00
46682;BME280;34101;53.430;-2.224;2022-11-15T05:31:00;155099.53;;;10.55;100.00
46682;BME280;34101;53.430;-2.224;2022-11-15T05:33:27;155108.50;;;10.58;100.00
46682;BME280;34101;53.430;-2.224;2022-11-15T05:36:00;155103.08;;;10.56;100.00
46682;BME280;34101;53.430;-2.224;2022-11-15T05:38:30;155117.72;;;10.62;100.00
46682;BME280;34101;53.430;-2.224;2022-11-15T05:40:57;155119.01;;;10.63;100.00
46682;BME280;34101;53.430;-2.224;2022-11-15T05:43:24;155122.08;;;10.64;100.00
46682;BME280;34101;53.430;-2.224;2022-11-15T05:45:51;155129.03;;;10.67;100.00
46682;BME280;34101;53.430;-2.224;2022-11-15T05:48:19;155134.61;;;10.69;100.00
46682;BME280;34101;53.430;-2.224;2022-11-15T05:50:46;155141.73;;;10.72;100.00
46682;BME280;34101;53.430;-2.224;2022-11-15T05:53:16;155138.17;;;10.70;100.00
46682;BME280;34101;53.430;-2.224;2022-11-15T05:55:45;155140.35;;;10.71;100.00
46682;BME280;34101;53.430;-2.224;2022-11-15T05:58:13;155155.39;;;10.77;100.00
46682;BME280;34101;53.430;-2.224;2022-11-15T06:00:40;155182.24;;;10.88;100.00
46682;BME280;34101;53.430;-2.224;2022-11-15T06:03:07;155174.39;;;10.85;100.00
46682;BME280;34101;53.430;-2.224;2022-11-15T06:05:35;155184.10;;;10.89;100.00
46682;BME280;34101;53.430;-2.224;2022-11-15T06:08:02;155186.52;;;10.90;100.00
46682;BME280;34101;53.430;-2.224;2022-11-15T06:10:30;155199.46;;;10.95;100.00
46682;BME280;34101;53.430;-2.224;2022-11-15T06:12:57;155220.00;;;11.03;100.00
46682;BME280;34101;53.430;-2.224;2022-11-15T06:15:24;155217.73;;;11.02;100.00
46682;BME280;34101;53.430;-2.224;2022-11-15T06:17:52;155236.98;;;11.10;100.00
46682;BME280;34101;53.430;-2.224;2022-11-15T06:20:19;155241.67;;;11.12;100.00
46682;BME280;34101;53.430;-2.224;2022-11-15T06:22:46;155227.20;;;11.06;100.00
46682;BME280;34101;53.430;-2.224;2022-11-15T06:25:14;155241.35;;;11.12;100.00
46682;BME280;34101;53.430;-2.224;2022-11-15T06:27:41;155246.77;;;11.14;100.00
46682;BME280;34101;53.430;-2.224;2022-11-15T06:30:10;155259.22;;;11.19;100.00
46682;BME280;34101;53.430;-2.224;2022-11-15T06:32:37;155266.74;;;11.22;100.00
46682;BME280;34101;53.430;-2.224;2022-11-15T06:35:05;155259.79;;;11.19;100.00
46682;BME280;34101;53.430;-2.224;2022-11-15T06:37:33;155244.18;;;11.13;100.00
46682;BME280;34101;53.430;-2.224;2022-11-15T06:40:01;155238.44;;;11.11;100.00
46682;BME280;34101;53.430;-2.224;2022-11-15T06:42:28;155230.35;;;11.08;100.00
46682;BME280;34101;53.430;-2.224;2022-11-15T06:44:56;155225.98;;;11.06;100.00
46682;BME280;34101;53.430;-2.224;2022-11-15T06:47:24;155219.35;;;11.03;100.00
46682;BME280;34101;53.430;-2.224;2022-11-15T06:49:51;155220.40;;;11.04;100.00
46682;BME280;34101;53.430;-2.224;2022-11-15T06:52:19;155225.90;;;11.06;100.00
46682;BME280;34101;53.430;-2.224;2022-11-15T06:54:46;155208.84;;;10.99;100.00
46682;BME280;34101;53.430;-2.224;2022-11-15T06:57:13;155189.67;;;10.91;100.00
46682;BME280;34101;53.430;-2.224;2022-11-15T06:59:41;155186.04;;;10.90;100.00
46682;BME280;34101;53.430;-2.224;2022-11-15T07:02:12;155171.00;;;10.84;100.00
46682;BME280;34101;53.430;-2.224;2022-11-15T07:04:39;155166.15;;;10.82;100.00
46682;BME280;34101;53.430;-2.224;2022-11-15T07:07:07;155173.58;;;10.85;100.00
46682;BME280;34101;53.430;-2.224;2022-11-15T07:09:34;155172.21;;;10.84;100.00
46682;BME280;34101;53.430;-2.224;2022-11-15T07:12:01;155177.06;;;10.86;100.00
46682;BME280;34101;53.430;-2.224;2022-11-15T07:14:29;155182.07;;;10.88;100.00
46682;BME280;34101;53.430;-2.224;2022-11-15T07:16:56;155170.27;;;10.83;100.00
46682;BME280;34101;53.430;-2.224;2022-11-15T07:19:23;155168.25;;;10.83;100.00
46682;BME280;34101;53.430;-2.224;2022-11-15T07:21:51;155160.00;;;10.79;100.00
46682;BME280;34101;53.430;-2.224;2022-11-15T07:24:18;155168.49;;;10.83;100.00
46682;BME280;34101;53.430;-2.224;2022-11-15T07:26:46;155181.91;;;10.88;100.00
46682;BME280;34101;53.430;-2.224;2022-11-15T07:29:13;155176.01;;;10.86;100.00
46682;BME280;34101;53.430;-2.224;2022-11-15T07:31:40;155170.51;;;10.83;100.00
46682;BME280;34101;53.430;-2.224;2022-11-15T07:34:08;155173.58;;;10.85;100.00
46682;BME280;34101;53.430;-2.224;2022-11-15T07:36:35;155176.58;;;10.86;100.00
46682;BME280;34101;53.430;-2.224;2022-11-15T07:39:03;155161.54;;;10.80;100.00
46682;BME280;34101;53.430;-2.224;2022-11-15T07:41:30;155158.63;;;10.79;100.00
46682;BME280;34101;53.430;-2.224;2022-11-15T07:43:57;155162.10;;;10.80;100.00
46682;BME280;34101;53.430;-2.224;2022-11-15T07:46:25;155163.56;;;10.81;100.00
46682;BME280;34101;53.430;-2.224;2022-11-15T07:48:52;155166.87;;;10.82;100.00
46682;BME280;34101;53.430;-2.224;2022-11-15T07:51:20;155177.79;;;10.86;100.00
46682;BME280;34101;53.430;-2.224;2022-11-15T07:53:47;155175.20;;;10.85;100.00
46682;BME280;34101;53.430;-2.224;2022-11-15T07:56:15;155170.59;;;10.83;100.00
46682;BME280;34101;53.430;-2.224;2022-11-15T07:58:42;155170.19;;;10.83;100.00
46682;BME280;34101;53.430;-2.224;2022-11-15T08:01:10;155171.97;;;10.84;100.00
46682;BME280;34101;53.430;-2.224;2022-11-15T08:03:38;155164.61;;;10.81;100.00
46682;BME280;34101;53.430;-2.224;2022-11-15T08:06:11;155164.37;;;10.81;100.00
46682;BME280;34101;53.430;-2.224;2022-11-15T08:08:39;155168.17;;;10.83;100.00
46682;BME280;34101;53.430;-2.224;2022-11-15T08:11:06;155169.14;;;10.83;100.00
46682;BME280;34101;53.430;-2.224;2022-11-15T08:13:33;155173.91;;;10.85;100.00
46682;BME280;34101;53.430;-2.224;2022-11-15T08:16:01;155175.20;;;10.85;100.00
46682;BME280;34101;53.430;-2.224;2022-11-15T08:18:29;155186.04;;;10.90;100.00
46682;BME280;34101;53.430;-2.224;2022-11-15T08:20:59;155191.21;;;10.92;100.00
46682;BME280;34101;53.430;-2.224;2022-11-15T08:23:26;155195.17;;;10.93;100.00
46682;BME280;34101;53.430;-2.224;2022-11-15T08:25:59;155195.50;;;10.94;100.00
46682;BME280;34101;53.430;-2.224;2022-11-15T08:28:27;155201.48;;;10.96;100.00
46682;BME280;34101;53.430;-2.224;2022-11-15T08:30:55;155213.93;;;11.01;100.00
46682;BME280;34101;53.430;-2.224;2022-11-15T08:33:22;155207.46;;;10.98;100.00
46682;BME280;34101;53.430;-2.224;2022-11-15T08:35:49;155223.15;;;11.05;100.00
46682;BME280;34101;53.430;-2.224;2022-11-15T08:38:17;155226.39;;;11.06;100.00
46682;BME280;34101;53.430;-2.224;2022-11-15T08:40:44;155244.26;;;11.13;100.00
46682;BME280;34101;53.430;-2.224;2022-11-15T08:43:11;155243.77;;;11.13;100.00
46682;BME280;34101;53.430;-2.224;2022-11-15T08:45:39;155249.68;;;11.15;100.00
46682;BME280;34101;53.430;-2.224;2022-11-15T08:48:06;155258.98;;;11.19;100.00
46682;BME280;34101;53.430;-2.224;2022-11-15T08:50:34;155254.93;;;11.17;100.00
46682;BME280;34101;53.430;-2.224;2022-11-15T08:53:05;155257.12;;;11.18;100.00
46682;BME280;34101;53.430;-2.224;2022-11-15T08:55:32;155270.14;;;11.24;100.00
46682;BME280;34101;53.430;-2.224;2022-11-15T08:57:59;155273.86;;;11.25;100.00
46682;BME280;34101;53.430;-2.224;2022-11-15T09:00:27;155272.73;;;11.25;100.00
46682;BME280;34101;53.430;-2.224;2022-11-15T09:02:54;155269.41;;;11.23;100.00
46682;BME280;34101;53.430;-2.224;2022-11-15T09:05:22;155282.68;;;11.29;100.00
46682;BME280;34101;53.430;-2.224;2022-11-15T09:07:53;155294.73;;;11.33;100.00
46682;BME280;34101;53.430;-2.224;2022-11-15T09:10:21;155276.29;;;11.26;100.00
46682;BME280;34101;53.430;-2.224;2022-11-15T09:12:48;155295.86;;;11.34;100.00
46682;BME280;34101;53.430;-2.224;2022-11-15T09:15:16;155295.70;;;11.34;100.00
46682;BME280;34101;53.430;-2.224;2022-11-15T09:17:44;155323.04;;;11.45;100.00
46682;BME280;34101;53.430;-2.224;2022-11-15T09:20:11;155309.45;;;11.39;100.00
46682;BME280;34101;53.430;-2.224;2022-11-15T09:22:39;155330.88;;;11.48;100.00
46682;BME280;34101;53.430;-2.224;2022-11-15T09:27:01;155319.64;;;11.44;100.00
46682;BME280;34101;53.430;-2.224;2022-11-15T09:29:38;155326.92;;;11.46;100.00
46682;BME280;34101;53.430;-2.224;2022-11-15T09:32:06;155314.38;;;11.41;100.00
46682;BME280;34101;53.430;-2.224;2022-11-15T09:34:33;155321.50;;;11.44;100.00
46682;BME280;34101;53.430;-2.224;2022-11-15T09:37:01;155317.46;;;11.43;100.00
46682;BME280;34101;53.430;-2.224;2022-11-15T09:39:28;155319.64;;;11.44;100.00
46682;BME280;34101;53.430;-2.224;2022-11-15T09:42:10;155310.98;;;11.40;100.00
46682;BME280;34101;53.430;-2.224;2022-11-15T09:44:51;155310.09;;;11.40;100.00
46682;BME280;34101;53.430;-2.224;2022-11-15T09:47:50;155307.83;;;11.39;100.00
46682;BME280;34101;53.430;-2.224;2022-11-15T09:50:31;155306.13;;;11.38;100.00
46682;BME280;34101;53.430;-2.224;2022-11-15T09:52:59;155319.88;;;11.44;100.00
46682;BME280;34101;53.430;-2.224;2022-11-15T09:55:32;155311.15;;;11.40;100.00
46682;BME280;34101;53.430;-2.224;2022-11-15T09:58:10;155307.75;;;11.39;100.00
46682;BME280;34101;53.430;-2.224;2022-11-15T10:00:46;155314.14;;;11.41;100.00
46682;BME280;34101;53.430;-2.224;2022-11-15T10:03:16;155330.72;;;11.48;100.00
46682;BME280;34101;53.430;-2.224;2022-11-15T10:05:46;155329.59;;;11.48;100.00
46682;BME280;34101;53.430;-2.224;2022-11-15T10:08:26;155323.68;;;11.45;100.00
46682;BME280;34101;53.430;-2.224;2022-11-15T10:10:59;155315.19;;;11.42;100.00
46682;BME280;34101;53.430;-2.224;2022-11-15T10:13:30;155314.79;;;11.42;100.00
46682;BME280;34101;53.430;-2.224;2022-11-15T10:16:08;155309.85;;;11.40;100.00
46682;BME280;34101;53.430;-2.224;2022-11-15T10:18:43;155316.57;;;11.42;100.00
46682;BME280;34101;53.430;-2.224;2022-11-15T10:21:20;155319.80;;;11.44;100.00
46682;BME280;34101;53.430;-2.224;2022-11-15T10:23:48;155332.26;;;11.49;100.00
46682;BME280;34101;53.430;-2.224;2022-11-15T10:26:17;155339.21;;;11.51;100.00
46682;BME280;34101;53.430;-2.224;2022-11-15T10:28:45;155337.52;;;11.51;100.00
46682;BME280;34101;53.430;-2.224;2022-11-15T10:31:23;155345.36;;;11.54;100.00
46682;BME280;34101;53.430;-2.224;2022-11-15T10:33:51;155354.10;;;11.57;100.00
46682;BME280;34101;53.430;-2.224;2022-11-15T10:36:26;155362.84;;;11.61;100.00
46682;BME280;34101;53.430;-2.224;2022-11-15T10:38:55;155348.11;;;11.55;100.00
46682;BME280;34101;53.430;-2.224;2022-11-15T10:41:32;155337.84;;;11.51;100.00
46682;BME280;34101;53.430;-2.224;2022-11-15T10:44:42;155353.29;;;11.57;100.00
46682;BME280;34101;53.430;-2.224;2022-11-15T10:47:28;155359.92;;;11.60;100.00
46682;BME280;34101;53.430;-2.224;2022-11-15T10:49:59;155379.18;;;11.67;100.00
46682;BME280;34101;53.430;-2.224;2022-11-15T10:52:27;155391.88;;;11.73;100.00
46682;BME280;34101;53.430;-2.224;2022-11-15T10:54:59;155402.31;;;11.77;100.00
46682;BME280;34101;53.430;-2.224;2022-11-15T10:57:29;155408.71;;;11.79;100.00
46682;BME280;34101;53.430;-2.224;2022-11-15T11:00:00;155385.81;;;11.70;100.00
46682;BME280;34101;53.430;-2.224;2022-11-15T11:02:31;155402.72;;;11.77;100.00
46682;BME280;34101;53.430;-2.224;2022-11-15T11:05:00;155404.42;;;11.78;100.00
46682;BME280;34101;53.430;-2.224;2022-11-15T11:07:30;155419.22;;;11.84;100.00
46682;BME280;34101;53.430;-2.224;2022-11-15T11:09:59;155427.96;;;11.87;100.00
46682;BME280;34101;53.430;-2.224;2022-11-15T11:12:29;155440.02;;;11.92;100.00
46682;BME280;34101;53.430;-2.224;2022-11-15T11:14:58;155446.25;;;11.94;100.00
46682;BME280;34101;53.430;-2.224;2022-11-15T11:17:34;155420.28;;;11.84;100.00
46682;BME280;34101;53.430;-2.224;2022-11-15T11:20:10;155432.90;;;11.89;100.00
46682;BME280;34101;53.430;-2.224;2022-11-15T11:22:53;155435.89;;;11.90;100.00
46682;BME280;34101;53.430;-2.224;2022-11-15T11:25:33;155434.19;;;11.90;100.00
46682;BME280;34101;53.430;-2.224;2022-11-15T11:28:17;155448.92;;;11.96;100.00
46682;BME280;34101;53.430;-2.224;2022-11-15T11:30:58;155455.55;;;11.98;100.00
46682;BME280;34101;53.430;-2.224;2022-11-15T11:33:32;155441.15;;;11.92;100.00
46682;BME280;34101;53.430;-2.224;2022-11-15T11:36:11;155450.21;;;11.96;100.00
46682;BME280;34101;53.430;-2.224;2022-11-15T11:38:51;155444.47;;;11.94;100.00
46682;BME280;34101;53.430;-2.224;2022-11-15T11:41:37;155456.69;;;11.99;100.00
46682;BME280;34101;53.430;-2.224;2022-11-15T11:44:18;155464.61;;;12.02;100.00
46682;BME280;34101;53.430;-2.224;2022-11-15T11:46:49;155484.28;;;12.10;100.00
46682;BME280;34101;53.430;-2.224;2022-11-15T11:49:24;155474.65;;;12.06;100.00
46682;BME280;34101;53.430;-2.224;2022-11-15T11:51:56;155471.33;;;12.05;100.00
46682;BME280;34101;53.430;-2.224;2022-11-15T11:54:38;155474.73;;;12.06;100.00
46682;BME280;34101;53.430;-2.224;2022-11-15T11:57:13;155460.97;;;12.00;100.00
46682;BME280;34101;53.430;-2.224;2022-11-15T11:59:47;155470.28;;;12.04;100.00
46682;BME280;34101;53.430;-2.224;2022-11-15T12:02:21;155469.31;;;12.04;100.00
46682;BME280;34101;53.430;-2.224;2022-11-15T12:05:01;155475.22;;;12.06;100.00
46682;BME280;34101;53.430;-2.224;2022-11-15T12:07:32;155492.13;;;12.13;100.00
46682;BME280;34101;53.430;-2.224;2022-11-15T12:10:05;155516.65;;;12.23;100.00
46682;BME280;34101;53.430;-2.224;2022-11-15T12:12:47;155515.51;;;12.22;100.00
46682;BME280;34101;53.430;-2.224;2022-11-15T12:15:19;155509.12;;;12.20;100.00
46682;BME280;34101;53.430;-2.224;2022-11-15T12:17:48;155526.28;;;12.27;100.00
46682;BME280;34101;53.430;-2.224;2022-11-15T12:20:18;155508.07;;;12.19;100.00
46682;BME280;34101;53.430;-2.224;2022-11-15T12:22:51;155517.62;;;12.23;100.00
46682;BME280;34101;53.430;-2.224;2022-11-15T12:25:24;155518.59;;;12.24;100.00
46682;BME280;34101;53.430;-2.224;2022-11-15T12:27:57;155510.82;;;12.20;100.00
46682;BME280;34101;53.430;-2.224;2022-11-15T12:30:43;155532.51;;;12.29;100.00
46682;BME280;34101;53.430;-2.224;2022-11-15T12:33:30;155546.19;;;12.35;100.00
46682;BME280;34101;53.430;-2.224;2022-11-15T12:36:01;155553.71;;;12.38;100.00
46682;BME280;34101;53.430;-2.224;2022-11-15T12:38:53;155548.05;;;12.35;100.00
46682;BME280;34101;53.430;-2.224;2022-11-15T12:41:22;155557.92;;;12.39;100.00
46682;BME280;34101;53.430;-2.224;2022-11-15T12:43:50;155565.45;;;12.42;100.00
46682;BME280;34101;53.430;-2.224;2022-11-15T12:46:22;155578.40;;;12.48;100.00
46682;BME280;34101;53.430;-2.224;2022-11-15T12:49:01;155548.94;;;12.36;100.00